Terminal Aerodrome Forecast
Issued by NWS

Home | Current Version | Previous Version | Graphics & Text | Print | Product List | Glossary On
Versions: 1 2 3 4 5 6 7 8 9 10 11 12 13 14 15 16 17 18 19 20 21
202
FTUS42 KMHX 211136
TAFISO
TAF
KISO 211136Z 2112/2212 00000KT 3SM SHRA BR OVC005
     FM211330 VRB04KT 6SM BR VCSH OVC005
     FM211530 31008KT P6SM VCSH BKN020
     FM211700 30008KT P6SM BKN035
     FM211900 30007KT P6SM BKN045
     FM220800 00000KT 3SM BR BKN003
      AMD LTD TO CLD VIS AND WIND=

USA.gov is the U.S. government's official web portal to all federal, state and local government web resources and services.